createdAt,value
2022-11-12T00:00:19.286Z,7.75
2022-11-12T00:03:05.803Z,7.74
2022-11-12T00:05:51.716Z,7.65
2022-11-12T00:08:37.442Z,7.54
2022-11-12T00:11:24.518Z,7.46
2022-11-12T00:14:10.488Z,7.51
2022-11-12T00:16:56.710Z,7.39
2022-11-12T00:19:42.304Z,7.33
2022-11-12T00:22:27.947Z,7.24
2022-11-12T00:25:14.091Z,7.21
2022-11-12T00:28:06.520Z,7.23
2022-11-12T00:30:52.412Z,7.06
2022-11-12T00:33:41.654Z,7.05
2022-11-12T00:36:27.323Z,6.99
2022-11-12T00:39:13.141Z,6.93
2022-11-12T00:41:59.220Z,6.86
2022-11-12T00:44:46.616Z,6.85
2022-11-12T00:47:32.701Z,6.83
2022-11-12T00:50:18.566Z,6.69
2022-11-12T00:53:04.658Z,6.78
2022-11-12T00:55:50.272Z,6.70
2022-11-12T00:58:36.561Z,6.62
2022-11-12T01:01:24.820Z,6.70
2022-11-12T01:04:10.577Z,6.53
2022-11-12T01:06:58.080Z,6.59
2022-11-12T01:09:43.936Z,6.46
2022-11-12T01:12:31.302Z,6.45
2022-11-12T01:15:17.367Z,6.52
2022-11-12T01:18:04.873Z,6.50
2022-11-12T01:20:50.466Z,6.40
2022-11-12T01:23:37.970Z,6.34
2022-11-12T01:26:24.273Z,6.34
2022-11-12T01:29:09.869Z,6.45
2022-11-12T01:31:55.645Z,6.47
2022-11-12T01:34:42.658Z,6.49
2022-11-12T01:37:28.229Z,6.47
2022-11-12T01:40:13.863Z,6.57
2022-11-12T01:42:59.621Z,6.60
2022-11-12T01:45:49.949Z,6.55
2022-11-12T01:48:39.718Z,6.53
2022-11-12T01:51:34.231Z,6.50
2022-11-12T01:54:22.197Z,6.56
2022-11-12T01:57:10.793Z,6.42
2022-11-12T02:00:01.040Z,6.49
2022-11-12T02:02:52.619Z,6.58
2022-11-12T02:05:40.422Z,6.58
2022-11-12T02:08:29.897Z,6.63
2022-11-12T02:11:17.203Z,6.71
2022-11-12T02:14:03.203Z,6.52
2022-11-12T02:16:49.605Z,6.69
2022-11-12T02:19:37.534Z,6.57
2022-11-12T02:22:24.928Z,6.44
2022-11-12T02:25:14.093Z,6.55
2022-11-12T02:28:02.428Z,6.46
2022-11-12T02:30:49.379Z,6.38
2022-11-12T02:33:35.255Z,6.45
2022-11-12T02:36:21.251Z,6.52
2022-11-12T02:39:08.364Z,6.37
2022-11-12T02:41:54.116Z,6.35
2022-11-12T02:44:39.987Z,6.43
2022-11-12T02:47:25.691Z,6.28
2022-11-12T02:50:11.474Z,6.16
2022-11-12T02:52:57.194Z,6.24
2022-11-12T02:55:44.647Z,6.21
2022-11-12T02:58:30.492Z,6.15
2022-11-12T03:01:16.064Z,6.20
2022-11-12T03:04:01.704Z,6.13
2022-11-12T03:06:47.213Z,6.05
2022-11-12T03:09:33.025Z,6.11
2022-11-12T03:12:20.121Z,5.95
2022-11-12T03:15:06.766Z,5.96
2022-11-12T03:17:52.936Z,5.93
2022-11-12T03:20:39.026Z,5.83
2022-11-12T03:23:26.438Z,5.81
2022-11-12T03:26:12.216Z,5.78
2022-11-12T03:28:59.182Z,5.81
2022-11-12T03:31:44.620Z,5.87
2022-11-12T03:34:30.219Z,5.78
2022-11-12T03:37:16.006Z,5.85
2022-11-12T03:40:01.972Z,5.85
2022-11-12T03:42:49.015Z,5.93
2022-11-12T03:45:35.956Z,5.88
2022-11-12T03:48:27.140Z,5.99
2022-11-12T03:51:13.348Z,5.78
2022-11-12T03:53:59.080Z,5.68
2022-11-12T03:56:44.664Z,5.65
2022-11-12T03:59:30.364Z,5.68
2022-11-12T04:02:17.561Z,5.74
2022-11-12T04:05:04.292Z,5.79
2022-11-12T04:07:50.480Z,5.88
2022-11-12T04:10:36.076Z,5.88
2022-11-12T04:13:21.808Z,5.72
2022-11-12T04:16:10.332Z,5.66
2022-11-12T04:18:59.467Z,5.89
2022-11-12T04:21:46.622Z,5.73
2022-11-12T04:24:34.745Z,5.79
2022-11-12T04:27:22.578Z,5.61
2022-11-12T04:30:09.346Z,5.55
2022-11-12T04:32:55.353Z,5.55
2022-11-12T04:35:42.624Z,5.44
2022-11-12T04:38:28.577Z,5.65
2022-11-12T04:41:14.766Z,5.58
2022-11-12T04:44:00.389Z,5.39
2022-11-12T04:46:45.875Z,5.37
2022-11-12T04:49:31.515Z,5.47
2022-11-12T04:52:18.489Z,5.42
2022-11-12T04:55:05.390Z,5.32
2022-11-12T04:57:56.081Z,5.29
2022-11-12T05:00:45.302Z,5.36
2022-11-12T05:03:31.116Z,5.35
2022-11-12T05:06:16.605Z,5.29
2022-11-12T05:09:03.724Z,5.13
2022-11-12T05:11:49.757Z,5.36
2022-11-12T05:14:36.062Z,5.49
2022-11-12T05:17:21.759Z,5.45
2022-11-12T05:20:08.402Z,5.43
2022-11-12T05:23:06.403Z,5.41
2022-11-12T05:25:54.638Z,5.39
2022-11-12T05:28:40.290Z,5.36
2022-11-12T05:31:25.923Z,5.25
2022-11-12T05:34:11.911Z,5.17
2022-11-12T05:36:57.464Z,5.04
2022-11-12T05:39:43.381Z,5.17
2022-11-12T05:42:30.283Z,5.25
2022-11-12T05:45:15.906Z,5.24
2022-11-12T05:48:01.529Z,5.09
2022-11-12T05:51:06.606Z,5.16
2022-11-12T05:53:55.747Z,5.06
2022-11-12T05:56:41.474Z,5.01
2022-11-12T05:59:28.442Z,4.97
2022-11-12T06:02:14.425Z,4.89
2022-11-12T06:05:00.556Z,5.16
2022-11-12T06:07:45.983Z,5.06
2022-11-12T06:10:31.935Z,4.97
2022-11-12T06:13:18.262Z,4.96
2022-11-12T06:16:05.774Z,5.01
2022-11-12T06:18:51.703Z,5.00
2022-11-12T06:21:37.393Z,5.00
2022-11-12T06:24:23.324Z,4.96
2022-11-12T06:27:09.081Z,5.06
2022-11-12T06:29:54.793Z,5.11
2022-11-12T06:32:41.791Z,5.11
2022-11-12T06:35:27.653Z,4.94
2022-11-12T06:38:13.506Z,4.95
2022-11-12T06:40:59.559Z,4.91
2022-11-12T06:43:45.334Z,5.00
2022-11-12T06:46:30.996Z,4.84
2022-11-12T06:49:18.112Z,4.79
2022-11-12T06:52:03.870Z,4.97
2022-11-12T06:54:49.701Z,4.96
2022-11-12T06:57:35.340Z,4.93
2022-11-12T07:00:20.884Z,4.92
2022-11-12T07:03:07.186Z,4.87
2022-11-12T07:05:54.600Z,4.92
2022-11-12T07:08:41.140Z,4.76
2022-11-12T07:11:26.704Z,4.91
2022-11-12T07:14:12.673Z,4.73
2022-11-12T07:16:58.278Z,4.61
2022-11-12T07:19:43.900Z,4.69
2022-11-12T07:22:33.167Z,4.76
2022-11-12T07:25:18.832Z,4.76
2022-11-12T07:28:04.562Z,4.82
2022-11-12T07:30:55.371Z,4.81
2022-11-12T07:33:41.642Z,4.81
2022-11-12T07:36:27.446Z,4.86
2022-11-12T07:39:14.533Z,4.93
2022-11-12T07:42:00.665Z,4.97
2022-11-12T07:44:46.299Z,5.04
2022-11-12T07:47:31.884Z,5.08
2022-11-12T07:50:17.667Z,5.34
2022-11-12T07:53:03.257Z,5.56
2022-11-12T07:55:57.499Z,5.47
2022-11-12T07:58:43.832Z,5.45
2022-11-12T08:01:31.482Z,5.46
2022-11-12T08:04:17.374Z,5.50
2022-11-12T08:07:03.032Z,5.55
2022-11-12T08:09:49.073Z,5.55
2022-11-12T08:12:36.539Z,5.63
2022-11-12T08:15:22.565Z,5.64
2022-11-12T08:18:08.551Z,5.66
2022-11-12T08:20:59.917Z,5.70
2022-11-12T08:23:46.518Z,5.79
2022-11-12T08:26:32.304Z,5.83
2022-11-12T08:29:19.382Z,5.90
2022-11-12T08:32:06.135Z,5.93
2022-11-12T08:34:51.805Z,6.10
2022-11-12T08:37:37.489Z,6.18
2022-11-12T08:40:23.177Z,6.25
2022-11-12T08:43:10.580Z,6.35
2022-11-12T08:45:59.958Z,6.48
2022-11-12T08:48:45.890Z,6.63
2022-11-12T08:51:31.454Z,6.70
2022-11-12T08:54:17.395Z,6.87
2022-11-12T08:57:03.000Z,6.97
2022-11-12T08:59:48.840Z,7.09
2022-11-12T09:02:35.881Z,7.23
2022-11-12T09:05:21.638Z,7.35
2022-11-12T09:08:10.623Z,7.49
2022-11-12T09:10:58.177Z,7.63
2022-11-12T09:13:44.203Z,7.78
2022-11-12T09:16:29.972Z,7.91
2022-11-12T09:19:17.159Z,8.06
2022-11-12T09:22:03.219Z,8.00
2022-11-12T09:24:49.094Z,8.10
2022-11-12T09:27:34.885Z,8.23
2022-11-12T09:30:20.973Z,8.32
2022-11-12T09:33:07.060Z,8.57
2022-11-12T09:35:54.617Z,8.57
2022-11-12T09:38:40.279Z,8.83
2022-11-12T09:41:32.263Z,8.83
2022-11-12T09:44:20.313Z,9.01
2022-11-12T09:47:13.915Z,9.16
2022-11-12T09:50:11.192Z,9.31
2022-11-12T09:53:07.771Z,9.45
2022-11-12T09:55:54.193Z,9.61
2022-11-12T09:58:40.151Z,9.76
2022-11-12T10:01:39.726Z,10.00
2022-11-12T10:04:44.107Z,12.24
2022-11-12T10:07:42.327Z,13.43
2022-11-12T10:10:39.835Z,13.51
2022-11-12T10:13:38.722Z,12.37
2022-11-12T10:16:47.624Z,12.28
2022-11-12T10:19:46.266Z,12.67
2022-11-12T10:22:42.856Z,14.60
2022-11-12T10:25:32.099Z,17.62
2022-11-12T10:28:27.886Z,17.61
2022-11-12T10:31:16.008Z,18.27
2022-11-12T10:34:14.833Z,18.50
2022-11-12T10:37:04.324Z,18.96
2022-11-12T10:39:50.072Z,17.87
2022-11-12T10:42:56.354Z,16.31
2022-11-12T10:45:42.445Z,14.37
2022-11-12T10:48:30.769Z,14.01
2022-11-12T10:51:24.732Z,13.91
2022-11-12T10:54:26.645Z,13.17
2022-11-12T10:57:24.011Z,12.47
2022-11-12T11:00:18.758Z,12.43
2022-11-12T11:03:14.800Z,12.30
2022-11-12T11:06:03.613Z,12.11
2022-11-12T11:08:50.737Z,12.05
2022-11-12T11:11:36.872Z,12.21
2022-11-12T11:14:29.144Z,11.92
2022-11-12T11:17:19.010Z,11.94
2022-11-12T11:20:06.078Z,12.29
2022-11-12T11:22:56.425Z,12.42
2022-11-12T11:25:43.329Z,12.75
2022-11-12T11:28:37.962Z,13.06
2022-11-12T11:31:35.358Z,13.30
2022-11-12T11:34:35.273Z,14.09
2022-11-12T11:37:25.874Z,14.07
2022-11-12T11:40:20.130Z,13.66
2022-11-12T11:43:20.281Z,14.69
2022-11-12T11:46:14.583Z,16.17
2022-11-12T11:49:23.503Z,17.86
2022-11-12T11:52:22.232Z,18.47
2022-11-12T11:55:22.041Z,17.86
2022-11-12T11:58:20.923Z,16.33
2022-11-12T12:01:19.185Z,16.50
2022-11-12T12:04:25.275Z,16.52
2022-11-12T12:07:24.808Z,16.26
2022-11-12T12:10:22.966Z,15.60
2022-11-12T12:13:25.909Z,15.91
2022-11-12T12:16:40.369Z,14.82
2022-11-12T12:19:40.696Z,14.12
2022-11-12T12:22:35.860Z,14.81
2022-11-12T12:25:25.054Z,15.26
2022-11-12T12:28:20.935Z,14.80
2022-11-12T12:31:13.412Z,14.34
2022-11-12T12:34:04.327Z,14.57
2022-11-12T12:36:55.681Z,14.54
2022-11-12T12:39:51.892Z,15.21
2022-11-12T12:42:45.125Z,15.19
2022-11-12T12:45:38.693Z,16.16
2022-11-12T12:48:29.464Z,15.93
2022-11-12T12:51:15.523Z,15.60
2022-11-12T12:54:02.613Z,16.33
2022-11-12T12:56:51.123Z,16.28
2022-11-12T12:59:36.815Z,16.16
2022-11-12T13:02:24.332Z,15.84
2022-11-12T13:05:24.255Z,16.44
2022-11-12T13:08:13.876Z,16.32
2022-11-12T13:10:59.906Z,17.23
2022-11-12T13:13:46.834Z,16.94
2022-11-12T13:16:56.918Z,17.26
2022-11-12T13:19:46.437Z,17.70
2022-11-12T13:22:50.394Z,18.40
2022-11-12T13:25:37.162Z,18.79
2022-11-12T13:28:23.068Z,18.27
2022-11-12T13:34:18.077Z,17.62
2022-11-12T13:37:05.770Z,16.58
2022-11-12T13:39:51.983Z,16.98
2022-11-12T13:42:38.384Z,17.03
2022-11-12T13:45:27.005Z,17.22
2022-11-12T13:48:17.240Z,17.26
2022-11-12T13:51:11.908Z,17.78
2022-11-12T13:53:57.841Z,18.35
2022-11-12T13:56:43.400Z,18.37
2022-11-12T13:59:29.135Z,18.06
2022-11-12T14:02:21.012Z,17.89
2022-11-12T14:05:14.310Z,18.36
2022-11-12T14:08:20.917Z,17.95
2022-11-12T14:11:44.919Z,19.03
2022-11-12T14:14:47.216Z,19.17
2022-11-12T14:17:42.468Z,19.77
2022-11-12T14:20:32.987Z,20.15
2022-11-12T14:23:25.108Z,19.59
2022-11-12T14:26:12.246Z,19.80
2022-11-12T14:28:58.668Z,20.14
2022-11-12T14:31:45.113Z,19.76
2022-11-12T14:34:32.544Z,18.89
2022-11-12T14:37:37.278Z,18.20
2022-11-12T14:40:30.778Z,16.89
2022-11-12T14:43:27.576Z,16.58
2022-11-12T14:46:24.345Z,16.14
2022-11-12T14:49:17.948Z,15.68
2022-11-12T14:52:11.306Z,15.50
2022-11-12T14:55:00.303Z,15.04
2022-11-12T14:57:47.627Z,14.66
2022-11-12T15:00:39.392Z,14.69
2022-11-12T15:03:30.996Z,15.04
2022-11-12T15:06:26.876Z,15.25
2022-11-12T15:09:17.306Z,14.66
2022-11-12T15:12:06.818Z,14.21
2022-11-12T15:15:03.759Z,13.75
2022-11-12T15:17:57.491Z,13.40
2022-11-12T15:20:43.292Z,13.24
2022-11-12T15:23:29.655Z,12.98
2022-11-12T15:26:24.793Z,12.67
2022-11-12T15:29:20.937Z,12.33
2022-11-12T15:32:33.835Z,12.00
2022-11-12T15:35:35.690Z,11.92
2022-11-12T15:38:26.388Z,11.77
2022-11-12T15:41:22.515Z,11.58
2022-11-12T15:44:09.208Z,11.43
2022-11-12T15:46:55.160Z,11.35
2022-11-12T15:49:49.348Z,11.25
2022-11-12T15:52:35.125Z,11.07
2022-11-12T15:55:20.704Z,10.98
2022-11-12T15:58:07.731Z,10.84
2022-11-12T16:00:53.753Z,10.67
2022-11-12T16:03:39.841Z,10.58
2022-11-12T16:06:26.851Z,10.53
2022-11-12T16:09:12.441Z,10.43
2022-11-12T16:11:58.167Z,10.38
2022-11-12T16:14:44.069Z,10.28
2022-11-12T16:17:29.760Z,10.17
2022-11-12T16:20:16.913Z,10.13
2022-11-12T16:23:04.446Z,10.12
2022-11-12T16:25:50.240Z,10.03
2022-11-12T16:28:35.987Z,9.92
2022-11-12T16:31:21.704Z,9.90
2022-11-12T16:34:07.372Z,9.79
2022-11-12T16:36:53.008Z,9.73
2022-11-12T16:39:39.926Z,9.68
2022-11-12T16:42:25.952Z,9.66
2022-11-12T16:45:13.083Z,9.59
2022-11-12T16:47:59.001Z,9.48
2022-11-12T16:50:44.812Z,9.52
2022-11-12T16:53:30.945Z,9.42
2022-11-12T16:56:20.008Z,9.43
2022-11-12T16:59:06.062Z,9.40
2022-11-12T17:01:51.897Z,9.29
2022-11-12T17:04:37.548Z,9.24
2022-11-12T17:07:23.230Z,9.18
2022-11-12T17:10:09.865Z,9.17
2022-11-12T17:12:57.183Z,9.03
2022-11-12T17:15:42.807Z,8.96
2022-11-12T17:18:28.676Z,8.87
2022-11-12T17:21:16.571Z,8.84
2022-11-12T17:24:02.289Z,8.82
2022-11-12T17:26:47.903Z,8.80
2022-11-12T17:29:34.977Z,8.82
2022-11-12T17:32:20.476Z,8.80
2022-11-12T17:35:07.293Z,8.68
2022-11-12T17:37:53.395Z,8.67
2022-11-12T17:40:39.393Z,8.63
2022-11-12T17:43:25.621Z,8.73
2022-11-12T17:46:14.901Z,8.72
2022-11-12T17:49:00.741Z,8.65
2022-11-12T17:51:46.707Z,8.55
2022-11-12T17:54:32.185Z,8.54
2022-11-12T17:57:17.819Z,8.54
2022-11-12T18:00:04.833Z,8.48
2022-11-12T18:02:51.874Z,8.48
2022-11-12T18:05:37.784Z,8.45
2022-11-12T18:08:23.351Z,8.32
2022-11-12T18:11:10.395Z,8.34
2022-11-12T18:13:56.739Z,8.26
2022-11-12T18:16:42.956Z,8.20
2022-11-12T18:19:30.222Z,8.13
2022-11-12T18:22:16.134Z,8.15
2022-11-12T18:25:01.896Z,8.09
2022-11-12T18:27:47.385Z,7.97
2022-11-12T18:30:34.071Z,7.94
2022-11-12T18:33:19.794Z,7.93
2022-11-12T18:36:10.119Z,7.89
2022-11-12T18:38:56.343Z,7.87
2022-11-12T18:41:42.374Z,7.87
2022-11-12T18:44:28.016Z,7.91
2022-11-12T18:47:13.900Z,7.89
2022-11-12T18:50:04.089Z,7.93
2022-11-12T18:52:54.274Z,7.86
2022-11-12T18:55:39.851Z,7.80
2022-11-12T18:58:29.347Z,7.96
2022-11-12T19:01:20.788Z,8.14
2022-11-12T19:04:06.750Z,7.93
2022-11-12T19:06:52.763Z,7.87
2022-11-12T19:09:40.300Z,7.82
2022-11-12T19:12:26.370Z,7.75
2022-11-12T19:15:12.119Z,7.86
2022-11-12T19:17:57.796Z,7.89
2022-11-12T19:20:43.531Z,7.84
2022-11-12T19:23:29.696Z,7.73
2022-11-12T19:26:17.744Z,7.70
2022-11-12T19:29:03.772Z,7.70
2022-11-12T19:31:49.851Z,7.66
2022-11-12T19:34:35.571Z,7.73
2022-11-12T19:37:33.350Z,7.75
2022-11-12T19:40:19.854Z,7.78
2022-11-12T19:43:07.111Z,7.81
2022-11-12T19:45:53.153Z,7.75
2022-11-12T19:48:39.573Z,7.89
2022-11-12T19:51:25.235Z,7.87
2022-11-12T19:54:11.089Z,7.91
2022-11-12T19:56:57.150Z,7.88
2022-11-12T19:59:44.187Z,7.90
2022-11-12T20:02:29.963Z,8.00
2022-11-12T20:05:15.992Z,7.97
2022-11-12T20:08:01.941Z,7.85
2022-11-12T20:10:48.111Z,7.85
2022-11-12T20:13:34.190Z,7.71
2022-11-12T20:16:25.579Z,7.78
2022-11-12T20:19:12.114Z,7.81
2022-11-12T20:21:58.450Z,7.74
2022-11-12T20:24:44.350Z,7.75
2022-11-12T20:27:30.490Z,7.70
2022-11-12T20:30:16.787Z,7.60
2022-11-12T20:33:04.190Z,7.61
2022-11-12T20:35:49.967Z,7.68
2022-11-12T20:38:39.784Z,7.59
2022-11-12T20:41:26.615Z,7.53
2022-11-12T20:44:12.367Z,7.48
2022-11-12T20:46:58.423Z,7.49
2022-11-12T20:49:45.659Z,7.49
2022-11-12T20:52:31.289Z,7.51
2022-11-12T20:55:17.284Z,7.48
2022-11-12T20:58:03.071Z,7.49
2022-11-12T21:00:50.111Z,7.44
2022-11-12T21:03:37.107Z,7.45
2022-11-12T21:06:25.942Z,7.39
2022-11-12T21:09:11.568Z,7.27
2022-11-12T21:11:57.641Z,7.32
2022-11-12T21:14:49.089Z,7.32
2022-11-12T21:17:36.341Z,7.38
2022-11-12T21:20:22.192Z,7.26
2022-11-12T21:23:09.543Z,7.31
2022-11-12T21:25:55.204Z,7.19
2022-11-12T21:28:42.865Z,7.16
2022-11-12T21:31:29.739Z,7.17
2022-11-12T21:34:15.552Z,7.09
2022-11-12T21:37:01.879Z,7.05
2022-11-12T21:39:48.871Z,7.02
2022-11-12T21:42:34.551Z,7.10
2022-11-12T21:45:21.546Z,7.06
2022-11-12T21:48:07.690Z,7.05
2022-11-12T21:50:53.594Z,7.10
2022-11-12T21:53:39.821Z,7.15
2022-11-12T21:56:27.844Z,7.12
2022-11-12T21:59:13.459Z,7.00
2022-11-12T22:01:59.193Z,7.01
2022-11-12T22:04:44.848Z,7.04
2022-11-12T22:07:30.862Z,7.03
2022-11-12T22:10:16.767Z,7.04
2022-11-12T22:13:25.878Z,7.04
2022-11-12T22:16:15.277Z,6.96
2022-11-12T22:19:01.175Z,6.96
2022-11-12T22:21:47.364Z,6.92
2022-11-12T22:24:33.324Z,6.87
2022-11-12T22:27:19.833Z,6.84
2022-11-12T22:30:08.627Z,6.85
2022-11-12T22:32:54.607Z,6.79
2022-11-12T22:35:40.631Z,6.79
2022-11-12T22:38:26.589Z,6.75
2022-11-12T22:41:14.785Z,6.69
2022-11-12T22:44:02.845Z,6.71
2022-11-12T22:46:49.938Z,6.62
2022-11-12T22:49:35.642Z,6.64
2022-11-12T22:52:21.300Z,6.58
2022-11-12T22:55:07.901Z,6.61
2022-11-12T22:57:53.764Z,6.61
2022-11-12T23:00:39.630Z,6.53
2022-11-12T23:03:26.763Z,6.54
2022-11-12T23:06:12.624Z,6.49
2022-11-12T23:08:59.691Z,6.48
2022-11-12T23:11:45.828Z,6.57
2022-11-12T23:14:31.911Z,6.48
2022-11-12T23:17:17.524Z,6.53
2022-11-12T23:20:05.440Z,6.54
2022-11-12T23:22:51.152Z,6.68
2022-11-12T23:25:36.980Z,6.68
2022-11-12T23:28:22.740Z,6.61
2022-11-12T23:31:10.848Z,6.66
2022-11-12T23:33:58.356Z,6.68
2022-11-12T23:36:45.663Z,6.67
2022-11-12T23:39:31.296Z,6.68
2022-11-12T23:42:16.950Z,6.71
2022-11-12T23:45:02.605Z,6.67
2022-11-12T23:47:48.428Z,6.66
2022-11-12T23:50:34.169Z,6.67
2022-11-12T23:53:21.173Z,6.67
2022-11-12T23:56:09.588Z,6.61
2022-11-12T23:58:55.541Z,6.60
